createdAt,value
2023-05-10T00:00:25.992Z,18.42
2023-05-10T00:01:26.004Z,18.45
2023-05-10T00:02:26.097Z,18.46
2023-05-10T00:03:26.102Z,18.42
2023-05-10T00:04:26.074Z,18.37
2023-05-10T00:05:26.062Z,18.33
2023-05-10T00:06:26.061Z,18.34
2023-05-10T00:07:26.076Z,18.36
2023-05-10T00:08:26.084Z,18.37
2023-05-10T00:09:26.077Z,18.37
2023-05-10T00:10:26.089Z,18.36
2023-05-10T00:11:26.102Z,18.34
2023-05-10T00:12:26.100Z,18.34
2023-05-10T00:13:26.291Z,18.31
2023-05-10T00:14:26.115Z,18.33
2023-05-10T00:15:26.130Z,18.31
2023-05-10T00:16:26.181Z,18.31
2023-05-10T00:17:26.178Z,18.30
2023-05-10T00:18:26.169Z,18.30
2023-05-10T00:19:26.169Z,18.28
2023-05-10T00:20:26.154Z,18.28
2023-05-10T00:21:26.155Z,18.28
2023-05-10T00:22:26.157Z,18.27
2023-05-10T00:23:26.136Z,18.26
2023-05-10T00:24:26.192Z,18.24
2023-05-10T00:25:26.150Z,18.24
2023-05-10T00:26:26.143Z,18.23
2023-05-10T00:27:26.147Z,18.24
2023-05-10T00:28:26.139Z,18.23
2023-05-10T00:29:26.133Z,18.23
2023-05-10T00:30:26.153Z,18.19
2023-05-10T00:31:26.178Z,18.19
2023-05-10T00:32:26.219Z,18.19
2023-05-10T00:33:26.198Z,18.11
2023-05-10T00:34:26.192Z,18.05
2023-05-10T00:35:26.188Z,18.02
2023-05-10T00:36:26.284Z,18.03
2023-05-10T00:37:26.290Z,18.02
2023-05-10T00:38:26.290Z,17.93
2023-05-10T00:39:26.285Z,17.98
2023-05-10T00:40:26.289Z,18.00
2023-05-10T00:41:26.348Z,18.05
2023-05-10T00:42:26.345Z,18.05
2023-05-10T00:43:26.346Z,17.97
2023-05-10T00:44:26.329Z,18.05
2023-05-10T00:45:26.399Z,18.00
2023-05-10T00:46:26.451Z,18.02
2023-05-10T00:47:26.485Z,18.05
2023-05-10T00:48:26.491Z,18.08
2023-05-10T00:49:26.506Z,18.12
2023-05-10T00:50:26.567Z,18.15
2023-05-10T00:51:26.562Z,18.13
2023-05-10T00:52:26.550Z,18.16
2023-05-10T00:53:26.599Z,18.16
2023-05-10T00:54:26.563Z,18.16
2023-05-10T00:55:26.557Z,18.15
2023-05-10T00:56:26.572Z,18.16
2023-05-10T00:57:26.552Z,18.16
2023-05-10T00:58:26.531Z,18.13
2023-05-10T00:59:26.539Z,18.05
2023-05-10T01:00:26.564Z,18.05
2023-05-10T01:01:26.600Z,17.98
2023-05-10T01:02:26.739Z,17.90
2023-05-10T01:03:29.505Z,17.80
2023-05-10T01:04:26.978Z,17.87
2023-05-10T01:05:26.829Z,17.88
2023-05-10T01:06:26.831Z,17.86
2023-05-10T01:07:26.724Z,17.91
2023-05-10T01:08:26.808Z,17.86
2023-05-10T01:09:26.796Z,17.88
2023-05-10T01:10:26.827Z,17.94
2023-05-10T01:11:26.827Z,17.90
2023-05-10T01:12:26.877Z,17.79
2023-05-10T01:13:26.946Z,17.68
2023-05-10T01:14:26.968Z,17.52
2023-05-10T01:15:26.905Z,17.65
2023-05-10T01:16:27.026Z,17.73
2023-05-10T01:17:26.921Z,17.80
2023-05-10T01:18:26.920Z,17.86
2023-05-10T01:19:26.974Z,17.88
2023-05-10T01:20:26.988Z,17.93
2023-05-10T01:21:27.696Z,17.94
2023-05-10T01:22:27.020Z,17.94
2023-05-10T01:23:27.055Z,17.97
2023-05-10T01:24:27.055Z,17.94
2023-05-10T01:25:27.291Z,17.94
2023-05-10T01:26:27.135Z,17.97
2023-05-10T01:27:27.163Z,17.95
2023-05-10T01:28:27.146Z,17.98
2023-05-10T01:29:27.171Z,17.97
2023-05-10T01:30:27.484Z,17.98
2023-05-10T01:31:27.265Z,17.94
2023-05-10T01:32:27.295Z,17.90
2023-05-10T01:33:27.277Z,17.91
2023-05-10T01:34:27.291Z,17.94
2023-05-10T01:35:27.284Z,17.93
2023-05-10T01:36:27.333Z,17.94
2023-05-10T01:37:27.346Z,17.95
2023-05-10T01:38:27.336Z,17.93
2023-05-10T01:39:27.357Z,17.91
2023-05-10T01:40:27.359Z,17.87
2023-05-10T01:41:27.352Z,17.91
2023-05-10T01:42:27.347Z,17.90
2023-05-10T01:43:27.436Z,17.84
2023-05-10T01:44:27.494Z,17.79
2023-05-10T01:45:27.529Z,17.72
2023-05-10T01:46:27.615Z,17.66
2023-05-10T01:47:27.632Z,17.63
2023-05-10T01:48:27.587Z,17.56
2023-05-10T01:49:27.640Z,17.57
2023-05-10T01:50:27.712Z,17.56
2023-05-10T01:51:27.691Z,17.63
2023-05-10T01:52:28.685Z,17.69
2023-05-10T01:53:27.725Z,17.69
2023-05-10T01:54:27.788Z,17.71
2023-05-10T01:55:27.846Z,17.66
2023-05-10T01:56:27.823Z,17.50
2023-05-10T01:57:27.885Z,17.30
2023-05-10T01:58:27.926Z,17.20
2023-05-10T01:59:27.990Z,17.24
2023-05-10T02:00:28.127Z,17.39
2023-05-10T02:01:28.073Z,17.42
2023-05-10T02:02:28.165Z,17.47
2023-05-10T02:03:28.232Z,17.46
2023-05-10T02:04:28.213Z,17.57
2023-05-10T02:05:28.308Z,17.65
2023-05-10T02:06:28.341Z,17.60
2023-05-10T02:07:28.398Z,17.66
2023-05-10T02:08:28.440Z,17.72
2023-05-10T02:09:28.481Z,17.75
2023-05-10T02:10:28.514Z,17.76
2023-05-10T02:11:28.576Z,17.79
2023-05-10T02:12:28.635Z,17.84
2023-05-10T02:13:28.793Z,17.86
2023-05-10T02:14:28.698Z,17.86
2023-05-10T02:15:28.741Z,17.82
2023-05-10T02:16:28.878Z,17.86
2023-05-10T02:17:28.921Z,17.88
2023-05-10T02:18:28.862Z,17.86
2023-05-10T02:19:28.910Z,17.84
2023-05-10T02:20:28.959Z,17.86
2023-05-10T02:21:28.984Z,17.78
2023-05-10T02:22:29.038Z,17.54
2023-05-10T02:23:29.084Z,17.56
2023-05-10T02:24:29.124Z,17.56
2023-05-10T02:25:29.179Z,17.65
2023-05-10T02:26:29.253Z,17.60
2023-05-10T02:27:29.310Z,17.53
2023-05-10T02:28:29.352Z,17.56
2023-05-10T02:29:29.416Z,17.32
2023-05-10T02:30:29.486Z,17.22
2023-05-10T02:31:29.474Z,17.04
2023-05-10T02:32:29.514Z,16.87
2023-05-10T02:33:29.570Z,16.58
2023-05-10T02:34:29.614Z,16.58
2023-05-10T02:35:29.656Z,16.46
2023-05-10T02:36:29.715Z,16.55
2023-05-10T02:37:29.750Z,16.59
2023-05-10T02:38:29.818Z,16.49
2023-05-10T02:39:29.863Z,16.43
2023-05-10T02:40:29.936Z,16.29
2023-05-10T02:41:29.978Z,16.17
2023-05-10T02:42:30.050Z,16.09
2023-05-10T02:43:30.080Z,16.08
2023-05-10T02:44:30.065Z,16.06
2023-05-10T02:45:30.072Z,16.16
2023-05-10T02:46:30.176Z,16.43
2023-05-10T02:47:30.228Z,16.40
2023-05-10T02:48:30.233Z,16.44
2023-05-10T02:49:30.232Z,16.47
2023-05-10T02:50:30.237Z,16.54
2023-05-10T02:51:30.234Z,16.44
2023-05-10T02:52:30.234Z,16.39
2023-05-10T02:53:30.229Z,16.36
2023-05-10T02:54:30.229Z,16.39
2023-05-10T02:55:30.236Z,16.59
2023-05-10T02:56:30.232Z,16.62
2023-05-10T02:57:30.230Z,16.84
2023-05-10T02:58:30.230Z,16.94
2023-05-10T02:59:30.210Z,16.68
2023-05-10T03:00:30.242Z,16.66
2023-05-10T03:01:30.261Z,16.61
2023-05-10T03:02:30.287Z,16.64
2023-05-10T03:03:30.223Z,16.76
2023-05-10T03:04:30.300Z,16.86
2023-05-10T03:05:30.268Z,16.86
2023-05-10T03:06:30.334Z,16.92
2023-05-10T03:07:30.363Z,16.94
2023-05-10T03:08:30.350Z,16.76
2023-05-10T03:09:30.403Z,16.61
2023-05-10T03:10:30.435Z,16.57
2023-05-10T03:11:30.481Z,16.61
2023-05-10T03:12:30.520Z,16.55
2023-05-10T03:13:30.649Z,16.66
2023-05-10T03:14:30.589Z,16.77
2023-05-10T03:15:30.640Z,16.80
2023-05-10T03:16:30.760Z,16.82
2023-05-10T03:17:30.713Z,16.62
2023-05-10T03:18:30.674Z,16.77
2023-05-10T03:19:30.725Z,16.73
2023-05-10T03:20:30.764Z,16.73
2023-05-10T03:21:30.838Z,16.73
2023-05-10T03:22:30.873Z,16.79
2023-05-10T03:23:30.916Z,16.80
2023-05-10T03:24:30.961Z,16.82
2023-05-10T03:25:30.994Z,16.83
2023-05-10T03:26:31.057Z,16.83
2023-05-10T03:27:31.113Z,16.89
2023-05-10T03:28:31.157Z,16.91
2023-05-10T03:29:31.208Z,16.91
2023-05-10T03:30:31.194Z,16.95
2023-05-10T03:31:31.310Z,16.77
2023-05-10T03:32:31.322Z,16.83
2023-05-10T03:33:31.287Z,16.87
2023-05-10T03:34:31.351Z,16.92
2023-05-10T03:35:31.377Z,16.74
2023-05-10T03:36:31.421Z,16.76
2023-05-10T03:37:31.452Z,16.74
2023-05-10T03:38:31.425Z,16.76
2023-05-10T03:39:31.459Z,16.74
2023-05-10T03:40:31.452Z,16.77
2023-05-10T03:41:31.486Z,16.73
2023-05-10T03:42:31.508Z,16.59
2023-05-10T03:43:31.527Z,16.51
2023-05-10T03:44:31.544Z,16.58
2023-05-10T03:45:31.554Z,16.55
2023-05-10T03:46:31.618Z,16.46
2023-05-10T03:47:31.641Z,16.46
2023-05-10T03:48:31.653Z,16.55
2023-05-10T03:49:31.674Z,16.64
2023-05-10T03:50:31.693Z,16.73
2023-05-10T03:51:31.709Z,16.66
2023-05-10T03:52:31.726Z,16.69
2023-05-10T03:53:31.761Z,16.69
2023-05-10T03:54:31.786Z,16.74
2023-05-10T03:55:31.820Z,16.76
2023-05-10T03:56:31.785Z,16.74
2023-05-10T03:57:31.803Z,16.80
2023-05-10T03:58:31.826Z,16.83
2023-05-10T03:59:31.851Z,16.86
2023-05-10T04:00:31.882Z,16.95
2023-05-10T04:01:31.906Z,16.92
2023-05-10T04:02:32.014Z,16.95
2023-05-10T04:03:32.100Z,16.94
2023-05-10T04:04:31.975Z,16.98
2023-05-10T04:05:32.029Z,16.82
2023-05-10T04:06:32.108Z,16.84
2023-05-10T04:07:32.043Z,16.94
2023-05-10T04:08:32.045Z,16.86
2023-05-10T04:09:32.050Z,16.84
2023-05-10T04:10:32.067Z,16.82
2023-05-10T04:11:32.068Z,16.66
2023-05-10T04:12:32.061Z,16.57
2023-05-10T04:13:32.133Z,16.62
2023-05-10T04:14:32.143Z,16.69
2023-05-10T04:15:32.140Z,16.61
2023-05-10T04:16:32.152Z,16.64
2023-05-10T04:17:32.181Z,16.68
2023-05-10T04:18:32.163Z,16.72
2023-05-10T04:19:32.165Z,16.58
2023-05-10T04:20:32.178Z,16.57
2023-05-10T04:21:32.156Z,16.68
2023-05-10T04:22:32.242Z,16.62
2023-05-10T04:23:32.310Z,16.31
2023-05-10T04:24:32.314Z,16.46
2023-05-10T04:25:32.336Z,16.57
2023-05-10T04:26:32.403Z,16.58
2023-05-10T04:27:32.375Z,16.44
2023-05-10T04:28:32.394Z,16.59
2023-05-10T04:29:32.423Z,16.65
2023-05-10T04:30:32.465Z,16.80
2023-05-10T04:31:32.482Z,16.74
2023-05-10T04:32:32.572Z,16.77
2023-05-10T04:33:32.540Z,16.68
2023-05-10T04:34:32.586Z,16.54
2023-05-10T04:35:32.653Z,16.55
2023-05-10T04:36:32.689Z,16.47
2023-05-10T04:37:32.732Z,16.37
2023-05-10T04:38:32.809Z,16.37
2023-05-10T04:39:32.828Z,16.46
2023-05-10T04:40:32.895Z,16.39
2023-05-10T04:41:32.921Z,16.00
2023-05-10T04:42:32.934Z,16.03
2023-05-10T04:43:33.003Z,15.90
2023-05-10T04:44:32.985Z,16.00
2023-05-10T04:45:33.033Z,16.06
2023-05-10T04:46:33.052Z,15.83
2023-05-10T04:47:33.103Z,15.85
2023-05-10T04:48:33.149Z,15.70
2023-05-10T04:49:33.170Z,15.67
2023-05-10T04:50:33.217Z,15.83
2023-05-10T04:51:33.288Z,15.84
2023-05-10T04:52:33.343Z,15.88
2023-05-10T04:53:33.428Z,15.72
2023-05-10T04:54:33.430Z,15.59
2023-05-10T04:55:33.470Z,15.47
2023-05-10T04:56:33.496Z,15.18
2023-05-10T04:57:33.520Z,15.37
2023-05-10T04:58:33.587Z,15.10
2023-05-10T04:59:33.609Z,14.96
2023-05-10T05:00:33.649Z,15.22
2023-05-10T05:01:33.643Z,15.33
2023-05-10T05:02:33.691Z,15.26
2023-05-10T05:03:33.828Z,15.39
2023-05-10T05:04:33.682Z,15.22
2023-05-10T05:05:33.716Z,15.23
2023-05-10T05:06:33.741Z,15.11
2023-05-10T05:07:33.779Z,15.05
2023-05-10T05:08:33.789Z,15.10
2023-05-10T05:09:33.814Z,15.18
2023-05-10T05:10:33.845Z,15.14
2023-05-10T05:11:33.867Z,15.26
2023-05-10T05:12:33.898Z,14.94
2023-05-10T05:13:33.956Z,15.15
2023-05-10T05:14:33.986Z,15.10
2023-05-10T05:15:34.014Z,15.26
2023-05-10T05:16:34.085Z,15.26
2023-05-10T05:17:34.156Z,14.99
2023-05-10T05:18:34.184Z,15.12
2023-05-10T05:19:34.173Z,15.07
2023-05-10T05:20:34.211Z,14.99
2023-05-10T05:21:34.230Z,14.85
2023-05-10T05:22:34.281Z,15.05
2023-05-10T05:23:34.372Z,15.11
2023-05-10T05:24:34.358Z,15.22
2023-05-10T05:25:34.428Z,15.08
2023-05-10T05:26:34.492Z,15.15
2023-05-10T05:27:34.549Z,15.22
2023-05-10T05:28:34.644Z,15.19
2023-05-10T05:29:34.669Z,15.35
2023-05-10T05:30:34.712Z,15.43
2023-05-10T05:31:34.836Z,15.45
2023-05-10T05:32:34.779Z,15.39
2023-05-10T05:33:34.788Z,15.47
2023-05-10T05:34:34.942Z,15.52
2023-05-10T05:35:34.878Z,15.32
2023-05-10T05:36:37.051Z,15.25
2023-05-10T05:37:34.952Z,15.14
2023-05-10T05:38:34.997Z,15.04
2023-05-10T05:39:35.119Z,15.14
2023-05-10T05:40:35.088Z,15.26
2023-05-10T05:41:35.156Z,15.27
2023-05-10T05:42:35.218Z,15.29
2023-05-10T05:43:38.031Z,15.26
2023-05-10T05:44:35.316Z,15.26
2023-05-10T05:45:35.375Z,15.48
2023-05-10T05:46:35.326Z,15.26
2023-05-10T05:47:35.418Z,15.30
2023-05-10T05:48:35.486Z,15.27
2023-05-10T05:49:35.471Z,15.17
2023-05-10T05:50:35.448Z,15.32
2023-05-10T05:51:35.487Z,15.22
2023-05-10T05:52:35.556Z,15.32
2023-05-10T05:53:35.624Z,15.35
2023-05-10T05:54:35.708Z,15.47
2023-05-10T05:55:35.779Z,15.41
2023-05-10T05:56:35.790Z,15.14
2023-05-10T05:57:35.762Z,15.10
2023-05-10T05:58:35.754Z,15.17
2023-05-10T05:59:35.758Z,15.02
2023-05-10T06:00:35.851Z,15.11
2023-05-10T06:01:35.873Z,15.07
2023-05-10T06:02:35.914Z,15.19
2023-05-10T06:03:35.963Z,15.11
2023-05-10T06:04:36.003Z,15.18
2023-05-10T06:05:36.191Z,15.27
2023-05-10T06:06:36.052Z,15.07
2023-05-10T06:07:36.086Z,15.17
2023-05-10T06:08:36.076Z,15.35
2023-05-10T06:09:36.084Z,15.33
2023-05-10T06:10:36.094Z,15.35
2023-05-10T06:11:36.142Z,15.39
2023-05-10T06:12:36.180Z,15.50
2023-05-10T06:13:36.394Z,15.50
2023-05-10T06:14:36.233Z,15.47
2023-05-10T06:15:36.306Z,15.59
2023-05-10T06:16:36.437Z,15.60
2023-05-10T06:17:36.518Z,15.73
2023-05-10T06:18:36.421Z,15.65
2023-05-10T06:19:36.483Z,15.63
2023-05-10T06:20:36.485Z,15.50
2023-05-10T06:21:36.524Z,15.41
2023-05-10T06:22:36.523Z,15.43
2023-05-10T06:23:36.530Z,15.43
2023-05-10T06:24:36.558Z,15.33
2023-05-10T06:25:36.557Z,15.44
2023-05-10T06:26:36.599Z,15.62
2023-05-10T06:27:36.669Z,15.67
2023-05-10T06:28:36.712Z,15.59
2023-05-10T06:29:36.761Z,15.59
2023-05-10T06:30:36.788Z,15.60
2023-05-10T06:31:36.884Z,15.54
2023-05-10T06:32:36.926Z,15.48
2023-05-10T06:33:36.951Z,15.35
2023-05-10T06:34:36.961Z,15.48
2023-05-10T06:35:36.977Z,15.37
2023-05-10T06:36:36.979Z,15.30
2023-05-10T06:37:36.955Z,15.30
2023-05-10T06:38:37.019Z,15.32
2023-05-10T06:39:37.012Z,15.43
2023-05-10T06:40:37.081Z,15.65
2023-05-10T06:41:37.106Z,15.94
2023-05-10T06:42:37.130Z,16.02
2023-05-10T06:43:37.158Z,15.90
2023-05-10T06:44:37.144Z,15.85
2023-05-10T06:45:37.161Z,15.99
2023-05-10T06:46:37.220Z,16.13
2023-05-10T06:47:39.171Z,16.09
2023-05-10T06:48:37.211Z,15.85
2023-05-10T06:49:37.206Z,16.05
2023-05-10T06:50:37.231Z,16.05
2023-05-10T06:51:37.280Z,16.25
2023-05-10T06:52:37.345Z,16.21
2023-05-10T06:53:37.396Z,16.21
2023-05-10T06:54:37.386Z,16.24
2023-05-10T06:55:37.383Z,16.24
2023-05-10T06:56:37.405Z,16.00
2023-05-10T06:57:37.428Z,16.00
2023-05-10T06:58:37.450Z,15.88
2023-05-10T06:59:37.533Z,15.73
2023-05-10T07:00:37.486Z,15.62
2023-05-10T07:01:37.492Z,15.41
2023-05-10T07:02:37.503Z,15.55
2023-05-10T07:03:37.475Z,15.69
2023-05-10T07:04:37.534Z,15.99
2023-05-10T07:05:37.659Z,16.12
2023-05-10T07:06:37.630Z,15.98
2023-05-10T07:07:37.651Z,16.00
2023-05-10T07:08:37.706Z,15.83
2023-05-10T07:09:37.688Z,15.92
2023-05-10T07:10:37.710Z,16.08
2023-05-10T07:11:37.719Z,15.98
2023-05-10T07:12:37.757Z,16.05
2023-05-10T07:13:37.741Z,15.94
2023-05-10T07:14:37.734Z,15.84
2023-05-10T07:15:37.731Z,16.05
2023-05-10T07:16:37.906Z,15.85
2023-05-10T07:17:37.852Z,15.84
2023-05-10T07:18:37.847Z,16.03
2023-05-10T07:19:37.882Z,16.29
2023-05-10T07:20:37.842Z,16.51
2023-05-10T07:21:37.842Z,16.29
2023-05-10T07:22:37.846Z,16.08
2023-05-10T07:23:37.848Z,16.02
2023-05-10T07:24:37.863Z,16.02
2023-05-10T07:25:37.845Z,16.22
2023-05-10T07:26:37.874Z,16.10
2023-05-10T07:27:37.877Z,16.09
2023-05-10T07:28:37.867Z,16.32
2023-05-10T07:29:37.887Z,16.21
2023-05-10T07:30:37.929Z,16.16
2023-05-10T07:31:37.947Z,16.09
2023-05-10T07:32:38.067Z,16.08
2023-05-10T07:33:38.001Z,16.40
2023-05-10T07:34:37.987Z,16.59
2023-05-10T07:35:37.992Z,16.66
2023-05-10T07:36:38.055Z,16.55
2023-05-10T07:37:38.055Z,16.66
2023-05-10T07:38:40.837Z,16.82
2023-05-10T07:39:38.115Z,17.19
2023-05-10T07:40:38.133Z,17.41
2023-05-10T07:41:38.180Z,17.79
2023-05-10T07:42:38.199Z,17.80
2023-05-10T07:43:38.255Z,17.50
2023-05-10T07:44:38.293Z,17.24
2023-05-10T07:45:38.313Z,17.38
2023-05-10T07:46:38.311Z,17.07
2023-05-10T07:47:38.359Z,17.02
2023-05-10T07:48:38.393Z,17.17
2023-05-10T07:49:38.439Z,17.22
2023-05-10T07:50:38.479Z,17.20
2023-05-10T07:51:38.503Z,17.19
2023-05-10T07:52:38.521Z,17.41
2023-05-10T07:53:38.537Z,17.56
2023-05-10T07:54:38.591Z,17.68
2023-05-10T07:55:38.604Z,17.68
2023-05-10T07:56:38.665Z,17.50
2023-05-10T07:57:39.187Z,17.05
2023-05-10T07:58:38.707Z,17.04
2023-05-10T07:59:38.766Z,16.87
2023-05-10T08:00:38.748Z,16.83
2023-05-10T08:01:38.838Z,16.91
2023-05-10T08:02:38.910Z,16.82
2023-05-10T08:03:39.002Z,16.74
2023-05-10T08:04:38.947Z,16.76
2023-05-10T08:05:38.916Z,17.01
2023-05-10T08:06:38.935Z,17.27
2023-05-10T08:07:38.968Z,17.35
2023-05-10T08:08:39.012Z,17.24
2023-05-10T08:09:39.033Z,17.12
2023-05-10T08:10:39.081Z,17.16
2023-05-10T08:11:39.039Z,17.19
2023-05-10T08:12:39.096Z,17.28
2023-05-10T08:13:39.129Z,17.10
2023-05-10T08:14:39.152Z,17.30
2023-05-10T08:15:39.211Z,17.19
2023-05-10T08:16:39.229Z,17.30
2023-05-10T08:17:39.283Z,16.92
2023-05-10T08:18:39.337Z,17.13
2023-05-10T08:19:39.341Z,17.47
2023-05-10T08:20:39.414Z,17.68
2023-05-10T08:21:39.454Z,17.59
2023-05-10T08:22:39.478Z,17.50
2023-05-10T08:23:39.536Z,17.38
2023-05-10T08:24:39.545Z,17.07
2023-05-10T08:25:39.615Z,17.12
2023-05-10T08:26:39.697Z,17.01
2023-05-10T08:27:39.607Z,16.79
2023-05-10T08:28:39.694Z,16.86
2023-05-10T08:29:49.480Z,17.09
2023-05-10T08:30:39.741Z,17.02
2023-05-10T08:31:39.828Z,16.94
2023-05-10T08:32:39.830Z,16.94
2023-05-10T08:33:41.532Z,17.13
2023-05-10T08:34:39.852Z,17.24
2023-05-10T08:35:39.841Z,17.59
2023-05-10T08:36:39.856Z,17.72
2023-05-10T08:37:39.891Z,17.72
2023-05-10T08:38:39.912Z,17.52
2023-05-10T08:39:39.903Z,17.35
2023-05-10T08:40:39.897Z,17.31
2023-05-10T08:41:39.901Z,17.23
2023-05-10T08:42:39.935Z,17.28
2023-05-10T08:43:39.945Z,17.37
2023-05-10T08:44:39.951Z,17.59
2023-05-10T08:45:39.980Z,17.32
2023-05-10T08:46:40.091Z,17.69
2023-05-10T08:47:40.145Z,17.75
2023-05-10T08:48:40.062Z,17.82
2023-05-10T08:49:40.084Z,17.87
2023-05-10T08:50:40.117Z,17.93
2023-05-10T08:51:41.790Z,17.98
2023-05-10T08:52:40.134Z,18.31
2023-05-10T08:53:40.147Z,18.46
2023-05-10T08:54:40.157Z,18.24
2023-05-10T08:55:40.166Z,18.12
2023-05-10T08:56:40.179Z,18.28
2023-05-10T08:57:40.191Z,18.52
2023-05-10T08:58:40.198Z,18.48
2023-05-10T08:59:40.230Z,18.37
2023-05-10T09:00:40.579Z,18.34
2023-05-10T09:01:40.339Z,18.28
2023-05-10T09:02:40.402Z,17.98
2023-05-10T09:03:40.447Z,18.09
2023-05-10T09:04:40.543Z,18.60
2023-05-10T09:05:40.537Z,18.97
2023-05-10T09:06:40.606Z,19.26
2023-05-10T09:07:40.560Z,19.12
2023-05-10T09:08:40.589Z,19.26
2023-05-10T09:09:40.625Z,19.52
2023-05-10T09:10:40.701Z,19.71
2023-05-10T09:11:41.598Z,19.39
2023-05-10T09:12:40.709Z,19.15
2023-05-10T09:13:40.729Z,18.94
2023-05-10T09:14:40.764Z,18.86
2023-05-10T09:15:40.804Z,19.16
2023-05-10T09:16:40.872Z,19.11
2023-05-10T09:17:40.930Z,19.29
2023-05-10T09:18:40.930Z,19.26
2023-05-10T09:19:40.920Z,19.26
2023-05-10T09:20:41.000Z,19.26
2023-05-10T09:21:40.978Z,19.16
2023-05-10T09:22:41.016Z,19.00
2023-05-10T09:23:41.027Z,19.17
2023-05-10T09:24:41.016Z,19.35
2023-05-10T09:25:41.043Z,19.22
2023-05-10T09:26:41.066Z,18.79
2023-05-10T09:27:41.075Z,18.52
2023-05-10T09:28:41.112Z,18.16
2023-05-10T09:29:41.103Z,18.02
2023-05-10T09:30:41.169Z,18.03
2023-05-10T09:31:41.139Z,18.00
2023-05-10T09:32:41.170Z,17.86
2023-05-10T09:33:41.163Z,17.87
2023-05-10T09:34:41.220Z,17.66
2023-05-10T09:35:41.237Z,17.59
2023-05-10T09:36:41.245Z,17.78
2023-05-10T09:37:41.281Z,18.00
2023-05-10T09:38:41.367Z,17.94
2023-05-10T09:39:41.358Z,17.71
2023-05-10T09:40:41.454Z,17.54
2023-05-10T09:41:41.466Z,17.66
2023-05-10T09:42:41.497Z,18.00
2023-05-10T09:43:41.526Z,18.11
2023-05-10T09:44:41.530Z,17.93
2023-05-10T09:45:41.604Z,17.84
2023-05-10T09:46:41.799Z,17.66
2023-05-10T09:47:41.638Z,17.65
2023-05-10T09:48:41.693Z,17.46
2023-05-10T09:49:41.769Z,17.66
2023-05-10T09:50:41.810Z,17.56
2023-05-10T09:51:41.661Z,17.53
2023-05-10T09:52:41.790Z,17.79
2023-05-10T09:53:41.763Z,17.69
2023-05-10T09:54:41.798Z,17.72
2023-05-10T09:55:41.857Z,17.44
2023-05-10T09:56:41.902Z,17.49
2023-05-10T09:57:41.886Z,17.44
2023-05-10T09:58:41.918Z,17.57
2023-05-10T09:59:41.982Z,17.68
2023-05-10T10:00:42.086Z,17.60
2023-05-10T10:01:42.223Z,17.56
2023-05-10T10:02:42.238Z,17.88
2023-05-10T10:03:42.176Z,17.93
2023-05-10T10:04:42.273Z,18.21
2023-05-10T10:05:42.274Z,18.58
2023-05-10T10:06:42.253Z,18.61
2023-05-10T10:07:42.262Z,18.78
2023-05-10T10:08:42.248Z,18.49
2023-05-10T10:09:42.266Z,18.51
2023-05-10T10:10:42.370Z,18.34
2023-05-10T10:11:42.420Z,18.88
2023-05-10T10:12:42.399Z,19.32
2023-05-10T10:13:42.431Z,18.91
2023-05-10T10:14:42.451Z,18.88
2023-05-10T10:15:42.517Z,19.00
2023-05-10T10:16:51.827Z,19.55
2023-05-10T10:17:42.698Z,20.22
2023-05-10T10:18:42.673Z,20.59
2023-05-10T10:19:42.696Z,20.85
2023-05-10T10:20:42.741Z,21.25
2023-05-10T10:21:42.747Z,21.65
2023-05-10T10:22:42.782Z,21.56
2023-05-10T10:23:42.800Z,21.41
2023-05-10T10:24:42.854Z,20.77
2023-05-10T10:25:42.922Z,20.73
2023-05-10T10:26:42.940Z,20.86
2023-05-10T10:27:43.018Z,21.13
2023-05-10T10:28:43.021Z,20.90
2023-05-10T10:29:43.073Z,21.03
2023-05-10T10:30:43.083Z,22.30
2023-05-10T10:31:43.193Z,22.68
2023-05-10T10:32:43.185Z,22.73
2023-05-10T10:33:43.170Z,22.53
2023-05-10T10:34:43.166Z,22.73
2023-05-10T10:35:43.280Z,22.73
2023-05-10T10:36:43.230Z,22.98
2023-05-10T10:37:43.275Z,22.89
2023-05-10T10:38:43.294Z,22.98
2023-05-10T10:39:43.318Z,23.23
2023-05-10T10:40:43.403Z,23.96
2023-05-10T10:41:43.402Z,24.28
2023-05-10T10:42:43.435Z,23.86
2023-05-10T10:43:43.449Z,23.95
2023-05-10T10:44:43.501Z,23.74
2023-05-10T10:45:43.562Z,22.80
2023-05-10T10:46:43.644Z,22.83
2023-05-10T10:47:43.632Z,23.23
2023-05-10T10:48:43.659Z,23.64
2023-05-10T10:49:43.657Z,24.13
2023-05-10T10:50:43.654Z,25.12
2023-05-10T10:51:43.657Z,24.79
2023-05-10T10:52:43.804Z,24.48
2023-05-10T10:53:43.762Z,23.81
2023-05-10T10:54:43.810Z,24.13
2023-05-10T10:55:43.819Z,24.24
2023-05-10T10:56:43.861Z,23.88
2023-05-10T10:57:43.891Z,23.56
2023-05-10T10:58:43.920Z,22.59
2023-05-10T10:59:43.960Z,22.47
2023-05-10T11:00:43.978Z,23.37
2023-05-10T11:01:43.961Z,23.45
2023-05-10T11:02:44.002Z,22.56
2023-05-10T11:03:44.079Z,22.51
2023-05-10T11:04:44.213Z,22.92
2023-05-10T11:05:44.148Z,23.48
2023-05-10T11:06:44.237Z,24.03
2023-05-10T11:07:44.250Z,24.86
2023-05-10T11:08:44.337Z,24.48
2023-05-10T11:09:44.351Z,24.09
2023-05-10T11:10:44.382Z,24.75
2023-05-10T11:11:44.392Z,25.56
2023-05-10T11:12:44.353Z,25.95
2023-05-10T11:13:44.416Z,26.29
2023-05-10T11:14:44.474Z,26.29
2023-05-10T11:15:44.471Z,26.27
2023-05-10T11:16:44.573Z,25.95
2023-05-10T11:17:44.737Z,25.18
2023-05-10T11:18:44.624Z,24.82
2023-05-10T11:19:44.672Z,24.01
2023-05-10T11:20:44.643Z,24.00
2023-05-10T11:21:44.699Z,24.16
2023-05-10T11:22:44.719Z,24.41
2023-05-10T11:23:44.768Z,24.36
2023-05-10T11:24:44.837Z,24.22
2023-05-10T11:25:44.889Z,23.92
2023-05-10T11:26:44.968Z,22.76
2023-05-10T11:27:45.008Z,22.77
2023-05-10T11:28:44.999Z,23.81
2023-05-10T11:29:45.016Z,23.63
2023-05-10T11:30:45.124Z,23.39
2023-05-10T11:31:45.091Z,22.93
2023-05-10T11:32:45.178Z,22.96
2023-05-10T11:33:45.134Z,23.25
2023-05-10T11:34:45.106Z,23.01
2023-05-10T11:35:45.155Z,23.37
2023-05-10T11:36:45.170Z,23.37
2023-05-10T11:37:45.216Z,23.94
2023-05-10T11:38:45.254Z,24.31
2023-05-10T11:39:45.233Z,24.82
2023-05-10T11:40:45.249Z,23.70
2023-05-10T11:41:45.214Z,23.36
2023-05-10T11:42:45.254Z,23.10
2023-05-10T11:43:45.250Z,23.40
2023-05-10T11:44:45.327Z,23.21
2023-05-10T11:45:45.296Z,23.25
2023-05-10T11:46:45.394Z,23.21
2023-05-10T11:47:45.413Z,23.26
2023-05-10T11:48:45.431Z,23.94
2023-05-10T11:49:45.517Z,23.71
2023-05-10T11:50:45.537Z,23.47
2023-05-10T11:51:45.555Z,23.48
2023-05-10T11:52:45.555Z,23.64
2023-05-10T11:53:45.593Z,24.03
2023-05-10T11:54:45.604Z,24.74
2023-05-10T11:55:45.652Z,24.37
2023-05-10T11:56:45.684Z,23.99
2023-05-10T11:57:45.676Z,23.56
2023-05-10T11:58:45.677Z,23.02
2023-05-10T11:59:45.710Z,22.59
2023-05-10T12:00:45.716Z,22.81
2023-05-10T12:01:45.729Z,22.74
2023-05-10T12:02:45.823Z,23.11
2023-05-10T12:03:45.881Z,24.21
2023-05-10T12:04:45.897Z,25.21
2023-05-10T12:05:45.830Z,25.16
2023-05-10T12:06:45.837Z,25.06
2023-05-10T12:07:45.880Z,25.15
2023-05-10T12:08:45.876Z,24.61
2023-05-10T12:09:45.973Z,24.07
2023-05-10T12:10:45.964Z,23.77
2023-05-10T12:11:46.004Z,23.45
2023-05-10T12:12:46.041Z,22.73
2023-05-10T12:13:46.026Z,23.10
2023-05-10T12:14:46.094Z,23.69
2023-05-10T12:15:46.148Z,24.51
2023-05-10T12:16:46.272Z,24.66
2023-05-10T12:17:46.243Z,24.58
2023-05-10T12:18:46.270Z,24.61
2023-05-10T12:19:46.297Z,25.12
2023-05-10T12:20:46.328Z,25.59
2023-05-10T12:21:46.427Z,25.36
2023-05-10T12:22:46.320Z,25.46
2023-05-10T12:23:46.428Z,24.48
2023-05-10T12:24:47.331Z,24.86
2023-05-10T12:25:46.421Z,25.63
2023-05-10T12:26:46.463Z,25.39
2023-05-10T12:27:46.495Z,24.82
2023-05-10T12:28:46.525Z,24.92
2023-05-10T12:29:46.620Z,24.84
2023-05-10T12:30:46.614Z,24.28
2023-05-10T12:31:46.656Z,24.50
2023-05-10T12:32:46.710Z,24.16
2023-05-10T12:33:46.681Z,23.86
2023-05-10T12:34:46.753Z,23.69
2023-05-10T12:35:46.738Z,23.51
2023-05-10T12:36:46.765Z,22.71
2023-05-10T12:37:46.754Z,22.19
2023-05-10T12:38:46.752Z,21.88
2023-05-10T12:39:46.779Z,21.77
2023-05-10T12:40:46.809Z,21.41
2023-05-10T12:41:46.821Z,21.37
2023-05-10T12:42:46.819Z,21.38
2023-05-10T12:43:46.974Z,20.98
2023-05-10T12:44:46.866Z,20.89
2023-05-10T12:45:46.921Z,21.00
2023-05-10T12:46:46.924Z,21.37
2023-05-10T12:47:46.972Z,21.29
2023-05-10T12:48:47.005Z,21.44
2023-05-10T12:49:47.070Z,21.51
2023-05-10T12:50:47.062Z,21.28
2023-05-10T12:51:47.101Z,20.98
2023-05-10T12:52:47.134Z,21.20